createdAt,value
2023-01-29T00:02:49.730Z,100261.88
2023-01-29T00:04:07.376Z,100263.50
2023-01-29T00:05:27.814Z,100260.66
2023-01-29T00:06:37.379Z,100262.03
2023-01-29T00:07:49.329Z,100261.06
2023-01-29T00:08:59.383Z,100261.72
2023-01-29T00:10:10.229Z,100263.50
2023-01-29T00:11:27.164Z,100256.50
2023-01-29T00:12:56.686Z,100250.03
2023-01-29T00:14:03.227Z,100257.16
2023-01-29T00:16:34.201Z,100253.41
2023-01-29T00:17:42.002Z,100252.72
2023-01-29T00:18:49.541Z,100258.53
2023-01-29T00:19:57.617Z,100257.97
2023-01-29T00:21:07.901Z,100252.47
2023-01-29T00:22:18.663Z,100255.66
2023-01-29T00:23:33.878Z,100254.78
2023-01-29T00:25:09.785Z,100248.38
2023-01-29T00:27:51.059Z,100258.88
2023-01-29T00:29:05.590Z,100259.63
2023-01-29T00:30:19.786Z,100252.34
2023-01-29T00:31:27.833Z,100250.06
2023-01-29T00:32:32.133Z,100245.47
2023-01-29T00:33:37.361Z,100250.38
2023-01-29T00:34:46.598Z,100249.50
2023-01-29T00:35:55.211Z,100240.28
2023-01-29T00:37:19.675Z,100244.75
2023-01-29T00:38:24.190Z,100245.44
2023-01-29T00:39:47.740Z,100244.22
2023-01-29T00:41:25.447Z,100242.25
2023-01-29T00:42:47.300Z,100240.34
2023-01-29T00:44:07.823Z,100243.25
2023-01-29T00:45:13.980Z,100243.94
2023-01-29T00:46:17.642Z,100233.31
2023-01-29T00:47:43.148Z,100231.56
2023-01-29T00:48:48.674Z,100228.06
2023-01-29T00:50:08.255Z,100232.63
2023-01-29T00:51:16.416Z,100233.19
2023-01-29T00:52:29.737Z,100225.72
2023-01-29T00:53:40.671Z,100234.19
2023-01-29T00:54:49.553Z,100226.44
2023-01-29T00:55:55.221Z,100222.44
2023-01-29T00:57:03.399Z,100217.13
2023-01-29T00:58:13.438Z,100221.41
2023-01-29T00:59:26.571Z,100221.81
2023-01-29T01:00:35.560Z,100225.16
2023-01-29T01:02:00.564Z,100222.63
2023-01-29T01:03:20.112Z,100218.16
2023-01-29T01:06:23.003Z,100221.47
2023-01-29T01:07:29.262Z,100219.38
2023-01-29T01:09:14.994Z,100219.47
2023-01-29T01:10:39.854Z,100219.84
2023-01-29T01:11:53.960Z,100221.09
2023-01-29T01:13:26.833Z,100224.28
2023-01-29T01:14:58.934Z,100225.66
2023-01-29T01:18:12.086Z,100224.78
2023-01-29T01:19:25.596Z,100218.41
2023-01-29T01:20:46.274Z,100224.19
2023-01-29T01:22:19.023Z,100223.03
2023-01-29T01:23:56.305Z,100212.50
2023-01-29T01:25:13.291Z,100216.88
2023-01-29T01:26:23.993Z,100223.94
2023-01-29T01:27:34.541Z,100221.84
2023-01-29T01:28:55.372Z,100216.03
2023-01-29T01:32:53.346Z,100221.84
2023-01-29T01:34:06.093Z,100228.13
2023-01-29T01:35:28.867Z,100224.66
2023-01-29T01:37:01.240Z,100225.50
2023-01-29T01:38:35.550Z,100221.41
2023-01-29T01:41:29.945Z,100222.91
2023-01-29T01:42:34.040Z,100222.38
2023-01-29T01:44:11.015Z,100219.84
2023-01-29T01:47:12.729Z,100218.91
2023-01-29T01:48:26.682Z,100221.47
2023-01-29T01:49:36.799Z,100216.31
2023-01-29T01:51:16.704Z,100212.94
2023-01-29T01:53:42.111Z,100208.91
2023-01-29T02:00:35.965Z,100202.41
2023-01-29T02:03:38.490Z,100202.84
2023-01-29T02:05:09.148Z,100202.06
2023-01-29T02:06:33.243Z,100196.00
2023-01-29T02:08:03.638Z,100194.63
2023-01-29T02:12:00.019Z,100196.56
2023-01-29T02:13:05.813Z,100196.94
2023-01-29T02:14:12.861Z,100191.59
2023-01-29T02:15:16.365Z,100188.81
2023-01-29T02:16:24.339Z,100191.28
2023-01-29T02:17:37.857Z,100189.28
2023-01-29T02:18:48.914Z,100185.97
2023-01-29T02:20:11.604Z,100182.97
2023-01-29T02:24:02.655Z,100180.44
2023-01-29T02:25:59.764Z,100180.31
2023-01-29T02:27:51.542Z,100174.75
2023-01-29T02:29:31.780Z,100171.66
2023-01-29T02:31:13.381Z,100172.09
2023-01-29T02:32:55.457Z,100161.00
2023-01-29T02:34:18.373Z,100163.97
2023-01-29T02:36:03.588Z,100166.34
2023-01-29T02:37:12.750Z,100165.25
2023-01-29T02:38:52.638Z,100165.91
2023-01-29T02:40:24.251Z,100158.81
2023-01-29T02:42:05.910Z,100162.66
2023-01-29T02:43:37.773Z,100159.75
2023-01-29T02:45:07.588Z,100159.50
2023-01-29T02:46:47.856Z,100161.66
2023-01-29T02:48:08.152Z,100148.44
2023-01-29T02:49:52.838Z,100156.47
2023-01-29T02:51:22.837Z,100148.44
2023-01-29T02:52:53.161Z,100145.84
2023-01-29T02:56:24.817Z,100135.84
2023-01-29T02:57:41.727Z,100138.50
2023-01-29T02:59:10.740Z,100128.97
2023-01-29T03:00:30.018Z,100138.88
2023-01-29T03:01:46.060Z,100138.88
2023-01-29T03:03:15.723Z,100134.88
2023-01-29T03:04:30.956Z,100122.66
2023-01-29T03:06:07.736Z,100126.75
2023-01-29T03:07:45.599Z,100122.47
2023-01-29T03:09:12.080Z,100128.19
2023-01-29T03:10:33.965Z,100122.44
2023-01-29T03:11:52.711Z,100112.16
2023-01-29T03:13:27.390Z,100122.44
2023-01-29T03:14:56.867Z,100118.19
2023-01-29T03:16:18.473Z,100118.19
2023-01-29T03:17:40.316Z,100111.75
2023-01-29T03:19:02.512Z,100112.13
2023-01-29T03:22:00.781Z,100107.91
2023-01-29T03:23:18.822Z,100105.97
2023-01-29T03:25:18.397Z,100102.38
2023-01-29T03:26:52.505Z,100099.78
2023-01-29T03:28:27.275Z,100102.19
2023-01-29T03:30:05.896Z,100103.22
2023-01-29T03:31:58.412Z,100092.88
2023-01-29T03:33:34.628Z,100094.91
2023-01-29T03:35:00.753Z,100077.66
2023-01-29T03:36:41.976Z,100076.19
2023-01-29T03:39:21.234Z,100069.00
2023-01-29T03:40:48.508Z,100071.41
2023-01-29T03:42:36.073Z,100074.34
2023-01-29T03:44:14.131Z,100065.78
2023-01-29T03:46:35.737Z,100065.00
2023-01-29T03:48:00.243Z,100069.13
2023-01-29T03:53:53.481Z,100055.56
2023-01-29T03:55:26.718Z,100057.03
2023-01-29T03:57:02.659Z,100051.81
2023-01-29T03:58:16.476Z,100045.19
2023-01-29T03:59:31.672Z,100053.75
2023-01-29T04:00:59.758Z,100045.59
2023-01-29T04:03:07.746Z,100038.75
2023-01-29T04:04:31.114Z,100031.22
2023-01-29T04:05:56.327Z,100030.41
2023-01-29T04:07:29.006Z,100036.31
2023-01-29T04:09:10.937Z,100040.13
2023-01-29T04:10:45.818Z,100033.59
2023-01-29T04:12:14.700Z,100033.44
2023-01-29T04:15:31.933Z,100038.88
2023-01-29T04:16:58.794Z,100029.63
2023-01-29T04:19:55.244Z,100030.88
2023-01-29T04:21:39.338Z,100030.50
2023-01-29T04:23:16.722Z,100021.69
2023-01-29T04:24:33.993Z,100016.72
2023-01-29T04:25:59.604Z,100020.47
2023-01-29T04:27:37.014Z,100010.19
2023-01-29T04:29:23.451Z,100019.56
2023-01-29T04:31:06.580Z,100013.00
2023-01-29T04:32:51.678Z,100025.50
2023-01-29T04:34:25.150Z,100017.19
2023-01-29T04:35:56.376Z,100026.38
2023-01-29T04:37:52.548Z,100023.81
2023-01-29T04:39:20.747Z,100014.38
2023-01-29T04:45:03.003Z,100010.53
2023-01-29T04:46:08.843Z,100003.88
2023-01-29T04:47:37.420Z,100006.75
2023-01-29T04:49:30.472Z,100003.34
2023-01-29T04:50:53.748Z,100008.13
2023-01-29T04:52:12.881Z,100012.31
2023-01-29T04:53:38.872Z,100008.63
2023-01-29T04:55:03.440Z,100012.31
2023-01-29T04:56:44.988Z,100015.09
2023-01-29T04:58:08.580Z,100009.59
2023-01-29T04:59:25.857Z,100012.94
2023-01-29T05:00:52.556Z,99998.31
2023-01-29T05:02:31.818Z,100003.59
2023-01-29T05:03:53.727Z,99997.38
2023-01-29T05:05:11.719Z,99992.41
2023-01-29T05:06:31.567Z,99994.47
2023-01-29T05:07:51.154Z,99993.75
2023-01-29T05:10:31.995Z,99993.88
2023-01-29T05:12:13.196Z,99992.13
2023-01-29T05:13:22.495Z,99986.38
2023-01-29T05:14:37.993Z,99991.78
2023-01-29T05:16:07.651Z,99985.34
2023-01-29T05:17:16.117Z,99984.91
2023-01-29T05:18:20.949Z,99980.66
2023-01-29T05:19:27.699Z,99986.69
2023-01-29T05:20:45.266Z,99984.69
2023-01-29T05:21:53.424Z,99988.63
2023-01-29T05:22:58.448Z,99990.09
2023-01-29T05:24:19.165Z,99987.94
2023-01-29T05:25:29.460Z,99995.13
2023-01-29T05:27:23.643Z,100002.66
2023-01-29T05:28:32.048Z,100007.09
2023-01-29T05:31:11.234Z,100000.47
2023-01-29T05:32:47.437Z,99997.94
2023-01-29T05:36:28.703Z,99999.94
2023-01-29T05:39:05.772Z,100010.59
2023-01-29T05:40:58.448Z,99999.22
2023-01-29T05:42:57.445Z,100000.19
2023-01-29T05:46:27.966Z,100001.44
2023-01-29T05:52:55.656Z,99992.13
2023-01-29T05:57:46.268Z,100006.88
2023-01-29T05:59:44.656Z,100001.72
2023-01-29T06:00:55.427Z,100001.03
2023-01-29T06:03:45.107Z,100005.09
2023-01-29T06:05:01.192Z,100000.47
2023-01-29T06:06:09.734Z,99997.22
2023-01-29T06:07:17.656Z,100000.47
2023-01-29T06:08:25.628Z,100003.84
2023-01-29T06:11:33.362Z,100003.56
2023-01-29T06:13:01.561Z,99999.09
2023-01-29T06:26:20.904Z,99994.50
2023-01-29T06:27:39.570Z,99992.88
2023-01-29T06:29:00.479Z,99996.06
2023-01-29T06:30:35.213Z,99986.50
2023-01-29T06:32:32.753Z,99997.44
2023-01-29T06:34:02.253Z,99990.44
2023-01-29T06:36:47.718Z,99981.53
2023-01-29T06:38:35.810Z,99983.66
2023-01-29T06:39:42.005Z,99985.28
2023-01-29T06:41:05.178Z,99980.00
2023-01-29T06:43:06.577Z,99974.44
2023-01-29T06:44:42.844Z,99982.56
2023-01-29T06:46:04.992Z,99985.00
2023-01-29T06:47:30.622Z,99975.28
2023-01-29T06:48:42.967Z,99985.78
2023-01-29T06:50:06.520Z,99978.75
2023-01-29T06:51:14.529Z,99990.59
2023-01-29T06:52:19.175Z,99979.78
2023-01-29T06:53:25.564Z,99984.09
2023-01-29T06:57:11.190Z,99975.09
2023-01-29T07:00:36.380Z,99964.25
2023-01-29T07:01:48.239Z,99970.81
2023-01-29T07:02:54.741Z,99963.00
2023-01-29T07:04:00.222Z,99960.31
2023-01-29T07:05:04.934Z,99959.22
2023-01-29T07:06:10.538Z,99962.09
2023-01-29T07:07:31.837Z,99960.97
2023-01-29T07:08:41.031Z,99951.34
2023-01-29T07:09:52.035Z,99954.88
2023-01-29T07:11:16.282Z,99952.31
2023-01-29T07:13:39.118Z,99948.31
2023-01-29T07:14:47.360Z,99939.50
2023-01-29T07:15:54.899Z,99948.50
2023-01-29T07:17:22.886Z,99947.06
2023-01-29T07:18:25.824Z,99942.75
2023-01-29T07:19:36.349Z,99945.47
2023-01-29T07:20:47.017Z,99946.09
2023-01-29T07:22:04.444Z,99955.31
2023-01-29T07:23:21.760Z,99949.97
2023-01-29T07:25:25.975Z,99953.03
2023-01-29T07:26:38.360Z,99954.97
2023-01-29T07:29:51.185Z,99956.72
2023-01-29T07:31:19.621Z,99946.38
2023-01-29T07:32:51.300Z,99940.75
2023-01-29T07:34:18.786Z,99961.38
2023-01-29T07:41:40.492Z,99937.31
2023-01-29T07:44:18.254Z,99945.00
2023-01-29T12:51:44.118Z,99647.50
2023-01-29T12:55:34.277Z,99648.63
2023-01-29T12:57:20.016Z,99642.47
2023-01-29T13:07:19.647Z,99639.00
2023-01-29T13:09:02.697Z,99645.22
2023-01-29T13:10:30.316Z,99646.50
2023-01-29T13:12:03.847Z,99650.16
2023-01-29T13:13:31.922Z,99642.84
2023-01-29T13:14:52.930Z,99638.16
2023-01-29T13:15:57.637Z,99643.63
2023-01-29T13:17:26.657Z,99631.09
2023-01-29T13:18:51.449Z,99643.28
2023-01-29T13:20:13.515Z,99638.31
2023-01-29T13:26:20.162Z,99637.75
2023-01-29T13:30:39.273Z,99624.72
2023-01-29T13:31:59.208Z,99624.19
2023-01-29T13:33:55.595Z,99627.16
2023-01-29T13:35:16.155Z,99622.59
2023-01-29T13:36:39.200Z,99620.97
2023-01-29T13:39:56.468Z,99631.66
2023-01-29T13:41:38.325Z,99625.66
2023-01-29T13:43:06.844Z,99624.34
2023-01-29T13:44:44.955Z,99620.03
2023-01-29T13:46:10.334Z,99622.09
2023-01-29T13:47:36.549Z,99619.44
2023-01-29T13:48:52.409Z,99618.25
2023-01-29T13:50:25.747Z,99613.88
2023-01-29T13:51:46.633Z,99611.56
2023-01-29T13:53:07.917Z,99612.56
2023-01-29T14:01:51.184Z,99607.00
2023-01-29T14:04:39.199Z,99606.53
2023-01-29T14:06:02.797Z,99608.53
2023-01-29T14:11:27.814Z,99613.78
2023-01-29T14:15:25.237Z,99604.56
2023-01-29T14:16:54.663Z,99608.84
2023-01-29T14:18:28.991Z,99606.69
2023-01-29T14:20:03.225Z,99601.94
2023-01-29T14:21:44.750Z,99598.59
2023-01-29T14:23:11.606Z,99603.88
2023-01-29T14:26:48.429Z,99587.47
2023-01-29T14:28:09.891Z,99586.25
2023-01-29T14:29:57.015Z,99582.41
2023-01-29T14:31:17.595Z,99573.00
2023-01-29T14:32:31.845Z,99582.50
2023-01-29T14:33:45.844Z,99577.72
2023-01-29T14:35:10.329Z,99582.38
2023-01-29T14:36:37.375Z,99582.50
2023-01-29T14:38:13.927Z,99582.81
2023-01-29T14:39:33.396Z,99586.94
2023-01-29T14:40:50.677Z,99584.28
2023-01-29T14:43:06.472Z,99578.19
2023-01-29T14:44:53.432Z,99587.56
2023-01-29T14:47:02.717Z,99588.34
2023-01-29T14:48:40.162Z,99591.41
2023-01-29T14:50:00.621Z,99588.09
2023-01-29T14:51:22.359Z,99583.53
2023-01-29T14:53:04.989Z,99585.22
2023-01-29T14:54:41.711Z,99586.19
2023-01-29T14:56:20.706Z,99584.31
2023-01-29T15:04:14.038Z,99582.03
2023-01-29T15:05:58.963Z,99576.03
2023-01-29T15:11:04.065Z,99570.81
2023-01-29T15:17:13.528Z,99582.06
2023-01-29T15:19:12.738Z,99571.84
2023-01-29T15:20:56.951Z,99581.19
2023-01-29T15:24:39.622Z,99575.97
2023-01-29T15:33:43.532Z,99570.97
2023-01-29T15:38:43.676Z,99579.34
2023-01-29T15:50:08.823Z,99578.72
2023-01-29T15:58:08.257Z,99567.97
2023-01-29T16:02:53.634Z,99569.50
2023-01-29T16:04:30.599Z,99574.13
2023-01-29T16:05:45.467Z,99570.38
2023-01-29T16:07:36.495Z,99568.44
2023-01-29T16:24:03.022Z,99550.53
2023-01-29T16:26:20.585Z,99549.38
2023-01-29T16:42:23.997Z,99548.56
2023-01-29T16:53:00.038Z,99533.56
2023-01-29T16:54:19.014Z,99521.94
2023-01-29T16:58:04.476Z,99532.47
2023-01-29T17:01:53.621Z,99536.31
2023-01-29T17:03:10.217Z,99534.09
2023-01-29T17:04:20.572Z,99529.56
2023-01-29T17:05:33.180Z,99533.72
2023-01-29T17:10:13.297Z,99530.06
2023-01-29T17:12:24.342Z,99526.03
2023-01-29T17:14:38.907Z,99513.56
2023-01-29T17:22:29.112Z,99511.81
2023-01-29T17:24:44.415Z,99505.50
2023-01-29T17:29:10.057Z,99512.53
2023-01-29T17:31:12.157Z,99516.00
2023-01-29T17:33:54.012Z,99512.06
2023-01-29T17:40:12.534Z,99506.19
2023-01-29T17:46:14.665Z,99508.28
2023-01-29T17:53:02.882Z,99493.03
2023-01-29T17:54:29.519Z,99497.84
2023-01-29T17:57:42.279Z,99493.31
2023-01-29T17:58:52.477Z,99504.09
2023-01-29T18:00:03.976Z,99499.53
2023-01-29T18:01:45.682Z,99500.03
2023-01-29T18:02:53.465Z,99497.34
2023-01-29T18:05:01.479Z,99500.31
2023-01-29T18:10:23.532Z,99510.03
2023-01-29T18:11:34.669Z,99503.03
2023-01-29T18:13:17.842Z,99489.88
2023-01-29T18:23:35.995Z,99488.41
2023-01-29T18:24:51.374Z,99487.25
2023-01-29T18:32:58.008Z,99477.00
2023-01-29T18:34:32.421Z,99485.34
2023-01-29T18:35:57.477Z,99484.09
2023-01-29T18:39:31.981Z,99487.41
2023-01-29T18:40:54.344Z,99488.31
2023-01-29T18:42:31.671Z,99488.13
2023-01-29T18:43:50.357Z,99486.75
2023-01-29T18:45:13.388Z,99473.63
2023-01-29T19:04:42.592Z,99481.88
2023-01-29T19:06:06.066Z,99476.16
2023-01-29T19:08:34.545Z,99473.28
2023-01-29T19:10:08.281Z,99468.75
2023-01-29T20:08:42.286Z,99433.09
2023-01-29T22:36:11.724Z,99308.59
2023-01-29T22:43:25.937Z,99299.50
2023-01-29T22:46:36.523Z,99292.63
2023-01-29T22:52:15.212Z,99277.16
2023-01-29T22:54:52.023Z,99278.28
2023-01-29T22:56:04.866Z,99282.31
2023-01-29T22:58:43.886Z,99272.41
2023-01-29T23:00:09.800Z,99267.59
2023-01-29T23:01:40.782Z,99273.81
2023-01-29T23:04:57.267Z,99273.03
2023-01-29T23:17:06.381Z,99257.81
2023-01-29T23:23:12.127Z,99252.47
2023-01-29T23:29:29.029Z,99248.56
2023-01-29T23:38:38.400Z,99233.94
2023-01-29T23:40:38.039Z,99245.34
